Time;durP1;ratioP1;P1;durP2;ratioP2;P2;SDS_P1;SDS_P2;PMS_P1;PMS_P2;Temp;Humidity;BMP_temperature;BMP_pressure;BME280_temperature;BME280_humidity;BME280_pressure;Samples;Min_cycle;Max_cycle;Signal;HPM_P1;HPM_P2
2021/09/21 00:00:06;;;;;;;16.40;9.20;;;4.70;99.90;;;;;;5009594;28;20030;-89
2021/09/21 00:02:31;;;;;;;13.95;9.13;;;4.70;99.90;;;;;;5008282;28;20109;-89
2021/09/21 00:04:57;;;;;;;16.17;10.00;;;4.60;99.90;;;;;;5019500;28;20065;-89
2021/09/21 00:07:23;;;;;;;17.02;9.75;;;4.60;99.90;;;;;;5020037;28;20399;-89
2021/09/21 00:09:48;;;;;;;12.18;8.52;;;4.60;99.90;;;;;;5003986;28;20047;-89
2021/09/21 00:12:14;;;;;;;15.85;9.15;;;4.60;99.90;;;;;;5010715;28;20014;-89
2021/09/21 00:14:40;;;;;;;16.92;9.32;;;4.50;99.90;;;;;;5009630;28;20030;-89
2021/09/21 00:17:06;;;;;;;12.35;9.32;;;4.50;99.90;;;;;;5009809;28;20257;-90
2021/09/21 00:19:32;;;;;;;15.60;9.30;;;4.50;99.90;;;;;;5011260;28;20076;-88
2021/09/21 00:21:59;;;;;;;12.80;8.95;;;4.50;99.90;;;;;;5006683;28;20095;-89
2021/09/21 00:24:25;;;;;;;13.63;9.45;;;4.50;99.90;;;;;;5007874;28;20025;-88
2021/09/21 00:26:50;;;;;;;15.35;8.88;;;4.40;99.90;;;;;;5008153;28;20034;-88
2021/09/21 00:29:16;;;;;;;14.05;8.73;;;4.40;99.90;;;;;;5009266;28;20026;-88
2021/09/21 00:31:48;;;;;;;12.65;9.18;;;4.40;99.90;;;;;;5011266;28;20029;-91
2021/09/21 00:34:15;;;;;;;16.23;10.00;;;4.30;99.90;;;;;;5006847;28;20097;-89
2021/09/21 00:36:41;;;;;;;15.18;9.60;;;4.30;99.90;;;;;;5008244;28;20047;-90
2021/09/21 00:39:10;;;;;;;14.13;9.40;;;4.30;99.90;;;;;;5007307;28;20038;-88
2021/09/21 00:41:38;;;;;;;15.57;9.07;;;4.30;99.90;;;;;;5004463;28;20033;-89
2021/09/21 00:44:05;;;;;;;15.93;9.23;;;4.50;99.90;;;;;;5012156;28;20025;-90
2021/09/21 00:46:31;;;;;;;14.02;8.45;;;4.50;99.90;;;;;;5010887;28;20100;-88
2021/09/21 00:48:56;;;;;;;14.27;9.05;;;4.50;99.90;;;;;;5003009;28;20026;-88
2021/09/21 00:51:24;;;;;;;14.23;9.23;;;4.50;99.90;;;;;;5007234;28;20077;-89
2021/09/21 00:53:51;;;;;;;12.90;8.77;;;4.50;99.90;;;;;;5009372;28;20132;-91
2021/09/21 00:56:17;;;;;;;18.05;10.63;;;4.70;99.90;;;;;;5007720;28;20117;-89
2021/09/21 00:58:42;;;;;;;15.95;9.48;;;4.70;99.90;;;;;;5005407;28;20128;-90
2021/09/21 01:01:08;;;;;;;14.35;9.50;;;4.80;99.90;;;;;;5009751;28;20464;-90
2021/09/21 01:03:34;;;;;;;13.63;8.38;;;4.80;99.90;;;;;;5007730;28;20567;-90
2021/09/21 01:06:00;;;;;;;14.02;8.98;;;4.90;99.90;;;;;;5009361;28;20038;-89
2021/09/21 01:08:27;;;;;;;13.85;9.23;;;4.80;99.90;;;;;;5007741;28;20029;-89
2021/09/21 01:10:53;;;;;;;15.18;10.10;;;4.90;99.90;;;;;;5009442;28;20033;-90
2021/09/21 01:13:18;;;;;;;15.45;10.15;;;4.90;99.90;;;;;;4999415;28;20026;-89
2021/09/21 01:15:44;;;;;;;18.63;9.27;;;4.90;99.90;;;;;;5011365;28;20036;-89
2021/09/21 01:18:09;;;;;;;15.95;9.43;;;4.90;99.90;;;;;;5007044;28;20034;-89
2021/09/21 01:20:35;;;;;;;16.58;9.48;;;4.90;99.90;;;;;;5009722;28;20033;-89
2021/09/21 01:23:02;;;;;;;16.52;9.50;;;5.00;99.90;;;;;;5007065;28;20069;-89
2021/09/21 01:25:28;;;;;;;16.20;10.60;;;5.00;99.90;;;;;;5010889;28;20491;-90
2021/09/21 01:27:54;;;;;;;18.02;9.98;;;5.00;99.90;;;;;;5009501;28;20040;-90
2021/09/21 01:30:20;;;;;;;17.85;9.85;;;4.90;99.90;;;;;;4995100;28;20030;-90
2021/09/21 01:32:46;;;;;;;14.48;9.60;;;4.90;99.90;;;;;;4995570;28;20026;-89
2021/09/21 01:35:13;;;;;;;14.45;10.18;;;4.90;99.90;;;;;;5000225;28;20375;-89
2021/09/21 01:37:41;;;;;;;15.02;9.73;;;4.80;99.90;;;;;;5004057;28;20115;-89
2021/09/21 01:40:08;;;;;;;15.43;9.35;;;4.70;99.90;;;;;;5006335;28;20053;-90
2021/09/21 01:42:34;;;;;;;13.18;10.02;;;4.70;99.90;;;;;;5001158;28;20038;-90
2021/09/21 01:44:59;;;;;;;14.10;9.70;;;4.70;99.90;;;;;;5006750;28;20388;-89
2021/09/21 01:47:25;;;;;;;14.70;9.77;;;4.70;99.90;;;;;;5008258;28;20101;-89
2021/09/21 01:52:30;;;;;;;13.77;10.10;;;4.70;99.90;;;;;;5004129;28;20136;-89
2021/09/21 01:58:18;;;;;;;12.80;9.07;;;4.80;99.90;;;;;;5006960;28;20092;-90
2021/09/21 02:00:31;;;;;;;13.68;8.88;;;4.90;99.90;;;;;;5011099;28;20075;-90
2021/09/21 02:02:57;;;;;;;14.57;9.85;;;4.90;99.90;;;;;;5007202;28;20105;-90
2021/09/21 02:05:23;;;;;;;12.77;9.45;;;4.90;99.90;;;;;;5013152;28;20044;-89
2021/09/21 02:07:48;;;;;;;15.57;9.63;;;4.90;99.90;;;;;;5008734;28;20465;-89
2021/09/21 02:10:14;;;;;;;15.38;9.82;;;5.00;99.90;;;;;;5010826;28;20085;-90
2021/09/21 02:12:40;;;;;;;14.05;9.60;;;5.10;99.90;;;;;;5009273;28;20494;-89
2021/09/21 02:15:07;;;;;;;14.68;9.95;;;5.20;99.90;;;;;;5009434;28;20480;-90
2021/09/21 02:17:33;;;;;;;15.55;10.25;;;5.20;99.90;;;;;;5009132;28;20029;-90
2021/09/21 02:19:58;;;;;;;14.88;9.85;;;5.20;99.90;;;;;;5003176;28;20038;-90
2021/09/21 02:22:24;;;;;;;14.10;9.88;;;5.20;99.90;;;;;;5005392;28;20014;-90
2021/09/21 02:24:50;;;;;;;15.80;10.48;;;5.20;99.90;;;;;;5011396;28;20416;-90
2021/09/21 02:27:15;;;;;;;16.02;10.05;;;5.20;99.90;;;;;;5012800;28;20033;-90
2021/09/21 02:29:41;;;;;;;18.15;11.57;;;5.20;99.90;;;;;;5009253;28;20121;-90
2021/09/21 02:32:07;;;;;;;19.15;12.88;;;5.20;99.90;;;;;;5011161;28;20033;-91
2021/09/21 02:34:33;;;;;;;21.30;12.20;;;5.20;99.90;;;;;;5008746;28;20066;-89
2021/09/21 02:36:58;;;;;;;17.42;12.70;;;5.30;99.90;;;;;;5004453;28;20468;-89
2021/09/21 02:39:24;;;;;;;20.63;13.20;;;5.30;99.90;;;;;;5006135;28;20168;-90
2021/09/21 02:41:49;;;;;;;20.00;12.75;;;5.30;99.90;;;;;;5013650;28;20033;-90
2021/09/21 02:44:15;;;;;;;23.98;13.57;;;5.30;99.90;;;;;;5001641;28;20065;-90
2021/09/21 02:46:41;;;;;;;21.80;13.48;;;5.30;99.90;;;;;;5014252;28;20424;-91
2021/09/21 02:49:06;;;;;;;19.95;13.15;;;5.30;99.90;;;;;;5008033;28;20125;-89
2021/09/21 02:51:32;;;;;;;23.48;13.65;;;5.40;99.90;;;;;;5012533;28;20377;-90
2021/09/21 02:53:58;;;;;;;24.00;14.48;;;5.30;99.90;;;;;;5003813;28;20380;-89
2021/09/21 02:56:23;;;;;;;23.55;13.73;;;5.40;99.90;;;;;;5009148;28;20164;-91
2021/09/21 02:58:49;;;;;;;24.55;13.75;;;5.40;99.90;;;;;;5002548;28;20089;-90
2021/09/21 03:01:18;;;;;;;22.98;14.15;;;5.40;99.90;;;;;;5010678;28;20034;-89
2021/09/21 03:03:51;;;;;;;25.17;13.63;;;5.40;99.90;;;;;;5007521;28;20022;-89
2021/09/21 03:06:31;;;;;;;28.67;15.15;;;5.40;99.90;;;;;;5007580;28;20121;-89
2021/09/21 03:09:14;;;;;;;24.63;12.77;;;5.40;99.90;;;;;;5013856;28;20026;-90
2021/09/21 03:11:43;;;;;;;21.85;13.52;;;5.40;99.90;;;;;;5021836;28;20284;-90
2021/09/21 03:19:24;;;;;;;24.13;14.73;;;5.40;99.90;;;;;;5007210;28;20475;-89
2021/09/21 03:21:51;;;;;;;21.25;13.38;;;5.40;99.90;;;;;;5008001;28;20550;-90
2021/09/21 03:24:17;;;;;;;23.80;14.50;;;5.40;99.90;;;;;;5011911;28;20282;-90
2021/09/21 03:26:42;;;;;;;21.55;13.32;;;5.40;99.90;;;;;;5005072;28;20033;-90
2021/09/21 03:29:09;;;;;;;23.38;14.02;;;5.40;99.90;;;;;;5009192;28;20030;-90
2021/09/21 03:31:34;;;;;;;29.52;14.80;;;5.40;99.90;;;;;;5010232;28;20096;-89
2021/09/21 03:34:00;;;;;;;23.00;13.63;;;5.40;99.90;;;;;;5013820;28;20030;-92
2021/09/21 03:36:26;;;;;;;23.15;15.52;;;5.40;99.90;;;;;;5008760;28;20713;-90
2021/09/21 03:38:51;;;;;;;26.35;14.98;;;5.40;99.90;;;;;;5011520;28;20022;-90
2021/09/21 03:41:17;;;;;;;25.45;15.10;;;5.40;99.90;;;;;;5002309;28;20044;-90
2021/09/21 03:43:44;;;;;;;26.65;15.18;;;5.40;99.90;;;;;;5012507;28;20025;-90
2021/09/21 03:46:10;;;;;;;21.98;13.75;;;5.40;99.90;;;;;;5006161;28;20042;-90
2021/09/21 03:48:36;;;;;;;26.25;15.00;;;5.30;99.90;;;;;;5013293;28;20068;-90
2021/09/21 03:51:01;;;;;;;27.52;15.77;;;5.30;99.90;;;;;;5006640;28;20141;-90
2021/09/21 03:53:27;;;;;;;22.25;15.35;;;5.30;99.90;;;;;;5004223;28;20045;-90
2021/09/21 03:55:53;;;;;;;27.95;15.88;;;5.30;99.90;;;;;;5000038;28;20045;-90
2021/09/21 03:58:18;;;;;;;26.48;16.40;;;5.20;99.90;;;;;;5008928;28;20101;-90
2021/09/21 04:00:44;;;;;;;25.65;16.85;;;5.30;99.90;;;;;;5006914;28;20822;-90
2021/09/21 04:03:10;;;;;;;25.27;15.90;;;5.20;99.90;;;;;;5010160;28;20026;-89
2021/09/21 04:05:36;;;;;;;25.95;16.25;;;5.20;99.90;;;;;;5005341;28;20041;-90
2021/09/21 04:08:01;;;;;;;26.85;17.02;;;5.20;99.90;;;;;;5010341;28;20037;-90
2021/09/21 04:10:27;;;;;;;27.42;15.77;;;5.20;99.90;;;;;;5004692;28;20034;-90
2021/09/21 04:12:53;;;;;;;24.27;15.30;;;5.20;99.90;;;;;;5009113;28;20481;-89
2021/09/21 04:15:19;;;;;;;23.92;15.20;;;5.20;99.90;;;;;;5004669;28;20029;-92
2021/09/21 04:17:44;;;;;;;22.77;15.52;;;5.20;99.90;;;;;;5009935;28;20033;-91
2021/09/21 04:20:11;;;;;;;31.10;16.27;;;5.20;99.90;;;;;;5002153;28;20075;-90
2021/09/21 04:22:39;;;;;;;21.52;13.77;;;5.20;99.90;;;;;;5011027;28;20026;-90
2021/09/21 04:25:05;;;;;;;26.88;15.52;;;5.20;99.90;;;;;;5004476;28;20380;-91
2021/09/21 04:27:31;;;;;;;21.50;14.13;;;5.20;99.90;;;;;;5008547;28;20056;-91
2021/09/21 04:30:01;;;;;;;20.90;14.02;;;5.30;99.90;;;;;;5002237;28;20109;-89
2021/09/21 04:32:27;;;;;;;23.73;14.57;;;5.20;99.90;;;;;;5006950;28;20026;-92
2021/09/21 04:34:53;;;;;;;24.90;15.07;;;5.20;99.90;;;;;;5009494;28;20022;-91
2021/09/21 04:37:19;;;;;;;28.15;16.17;;;5.30;99.90;;;;;;5006463;28;20037;-91
2021/09/21 04:39:44;;;;;;;27.15;15.25;;;5.30;99.90;;;;;;5012164;28;20411;-90
2021/09/21 04:42:10;;;;;;;26.30;15.27;;;5.30;99.90;;;;;;5007536;28;20026;-90
2021/09/21 04:44:37;;;;;;;22.38;14.18;;;5.30;99.90;;;;;;5007304;28;20048;-90
2021/09/21 04:47:03;;;;;;;23.48;13.95;;;5.30;99.90;;;;;;5009084;28;20041;-91
2021/09/21 04:49:29;;;;;;;25.92;15.68;;;5.40;99.90;;;;;;5010238;28;20478;-91
2021/09/21 04:51:55;;;;;;;21.13;14.25;;;5.40;99.90;;;;;;5010102;28;20093;-90
2021/09/21 04:54:20;;;;;;;25.38;15.30;;;5.50;99.90;;;;;;5011373;28;20467;-91
2021/09/21 04:56:46;;;;;;;23.25;14.77;;;5.50;99.90;;;;;;5005663;28;20040;-90
2021/09/21 04:59:12;;;;;;;26.00;15.77;;;5.60;99.90;;;;;;5006543;28;20105;-90
2021/09/21 05:01:38;;;;;;;24.85;14.88;;;5.60;99.90;;;;;;5009891;28;20028;-90
2021/09/21 05:04:04;;;;;;;21.88;14.10;;;5.60;99.90;;;;;;5009230;28;20025;-91
2021/09/21 05:06:30;;;;;;;27.50;15.35;;;5.70;99.90;;;;;;5010827;28;20121;-90
2021/09/21 05:08:55;;;;;;;19.67;13.85;;;5.70;99.90;;;;;;5006391;28;20117;-90
2021/09/21 05:11:21;;;;;;;22.00;14.45;;;5.70;99.90;;;;;;5009168;28;20076;-90
2021/09/21 05:13:47;;;;;;;22.30;15.18;;;5.90;99.90;;;;;;5009076;28;20590;-90
2021/09/21 05:16:12;;;;;;;21.30;13.88;;;5.90;99.90;;;;;;5008230;28;27275;-90
2021/09/21 05:18:38;;;;;;;19.27;13.40;;;6.00;99.90;;;;;;5011206;28;20388;-89
2021/09/21 05:21:04;;;;;;;23.42;15.20;;;6.10;99.90;;;;;;5006935;28;20026;-90
2021/09/21 05:23:29;;;;;;;21.50;15.73;;;6.10;99.90;;;;;;5006662;28;20064;-90
2021/09/21 05:25:55;;;;;;;22.58;14.30;;;6.10;99.90;;;;;;5016579;28;20022;-90
2021/09/21 05:28:21;;;;;;;26.65;14.95;;;6.30;99.90;;;;;;5010627;28;20048;-91
2021/09/21 05:30:46;;;;;;;22.88;14.38;;;6.30;99.90;;;;;;5010697;28;20109;-90
2021/09/21 05:33:12;;;;;;;23.95;15.25;;;6.40;99.90;;;;;;5005877;28;20084;-90
2021/09/21 05:35:38;;;;;;;23.92;14.55;;;6.40;99.90;;;;;;5007005;28;20472;-91
2021/09/21 05:38:04;;;;;;;24.40;15.15;;;6.50;99.90;;;;;;5006455;28;20030;-91
2021/09/21 05:40:29;;;;;;;27.30;16.02;;;6.60;99.90;;;;;;5008676;28;20073;-91
2021/09/21 05:42:56;;;;;;;26.02;15.20;;;6.70;99.90;;;;;;5010895;28;20032;-90
2021/09/21 05:45:22;;;;;;;27.17;15.95;;;6.70;99.90;;;;;;5008728;28;20048;-90
2021/09/21 05:47:48;;;;;;;21.95;15.20;;;6.80;99.90;;;;;;5005998;28;20029;-92
2021/09/21 05:50:15;;;;;;;27.45;14.85;;;6.90;99.90;;;;;;5003774;28;20389;-91
2021/09/21 05:52:41;;;;;;;23.15;13.95;;;7.00;99.90;;;;;;5005544;28;20380;-90
2021/09/21 05:55:08;;;;;;;22.77;14.07;;;7.00;99.90;;;;;;5008110;28;20056;-92
2021/09/21 05:57:34;;;;;;;22.25;14.88;;;7.20;99.90;;;;;;5006231;28;20026;-90
2021/09/21 06:00:00;;;;;;;19.35;13.07;;;7.20;99.90;;;;;;5008484;28;20037;-91
2021/09/21 06:02:26;;;;;;;17.90;12.98;;;7.30;99.90;;;;;;5004691;28;20056;-90
2021/09/21 06:04:52;;;;;;;20.80;13.95;;;7.30;99.90;;;;;;5006969;28;20077;-90
2021/09/21 06:07:18;;;;;;;17.30;13.45;;;7.50;99.90;;;;;;5005986;28;20483;-91
2021/09/21 06:09:44;;;;;;;18.92;13.63;;;7.50;99.90;;;;;;5008281;28;20076;-90
2021/09/21 06:12:10;;;;;;;15.07;12.45;;;7.60;99.90;;;;;;5015233;28;20459;-90
2021/09/21 06:14:36;;;;;;;16.13;11.65;;;7.70;99.90;;;;;;5019553;28;20028;-90
2021/09/21 06:17:04;;;;;;;20.60;12.13;;;7.70;99.90;;;;;;5012408;28;20033;-91
2021/09/21 06:19:30;;;;;;;21.35;11.85;;;7.80;99.90;;;;;;5008091;28;20542;-92
2021/09/21 06:21:56;;;;;;;19.73;11.60;;;7.90;99.90;;;;;;5012043;28;20022;-90
2021/09/21 06:24:22;;;;;;;18.55;12.02;;;8.00;99.90;;;;;;5011594;28;20045;-90
2021/09/21 06:26:48;;;;;;;16.52;11.80;;;8.00;99.90;;;;;;5005865;28;20452;-91
2021/09/21 06:29:15;;;;;;;17.52;12.07;;;8.10;99.90;;;;;;5006252;28;20034;-91
2021/09/21 06:31:41;;;;;;;18.60;11.20;;;8.20;99.90;;;;;;5010158;28;20387;-91
2021/09/21 06:34:07;;;;;;;14.75;10.20;;;8.20;99.90;;;;;;5009000;28;20057;-89
2021/09/21 06:36:33;;;;;;;14.88;10.20;;;8.30;99.90;;;;;;5003180;28;20023;-91
2021/09/21 06:38:59;;;;;;;14.38;9.95;;;8.30;99.90;;;;;;5005716;28;20030;-91
2021/09/21 06:41:24;;;;;;;14.60;9.70;;;8.40;99.90;;;;;;5003999;28;20025;-91
2021/09/21 06:43:50;;;;;;;14.40;10.48;;;8.50;99.90;;;;;;5010022;28;20032;-89
2021/09/21 06:46:16;;;;;;;16.40;9.48;;;8.60;99.90;;;;;;5007873;28;20116;-90
2021/09/21 06:48:41;;;;;;;11.80;8.35;;;8.60;99.90;;;;;;5007445;28;20034;-91
2021/09/21 06:51:08;;;;;;;12.00;8.93;;;8.70;99.90;;;;;;5010868;28;20053;-89
2021/09/21 06:53:34;;;;;;;13.13;8.93;;;8.70;99.90;;;;;;5010111;28;20121;-90
2021/09/21 06:56:00;;;;;;;12.05;8.60;;;8.80;99.90;;;;;;5012303;28;20093;-90
2021/09/21 06:58:26;;;;;;;13.60;8.10;;;8.90;99.90;;;;;;4998477;28;20035;-91
2021/09/21 07:00:52;;;;;;;12.60;7.55;;;9.00;99.90;;;;;;5013511;28;20036;-89
2021/09/21 07:03:17;;;;;;;11.43;7.60;;;9.10;99.90;;;;;;5011066;28;20053;-90
2021/09/21 07:05:44;;;;;;;11.55;7.28;;;9.20;99.90;;;;;;5012846;28;20395;-89
2021/09/21 07:08:09;;;;;;;9.68;7.28;;;9.30;99.90;;;;;;5012021;28;20032;-88
2021/09/21 07:10:35;;;;;;;9.77;6.78;;;9.30;99.90;;;;;;5014596;28;20108;-90
2021/09/21 07:13:02;;;;;;;14.55;7.28;;;9.30;99.90;;;;;;5008926;28;20026;-90
2021/09/21 07:15:27;;;;;;;12.40;6.55;;;9.40;99.90;;;;;;5015223;28;20030;-89
2021/09/21 07:17:54;;;;;;;9.73;6.30;;;9.50;99.90;;;;;;5009038;28;20365;-90
2021/09/21 07:20:22;;;;;;;14.88;8.10;;;9.50;99.90;;;;;;5006935;28;20030;-91
2021/09/21 07:22:49;;;;;;;8.05;6.00;;;9.60;99.90;;;;;;5012213;28;20109;-89
2021/09/21 07:25:17;;;;;;;7.40;4.97;;;9.60;99.90;;;;;;5009442;28;20041;-90
2021/09/21 07:27:43;;;;;;;9.32;5.82;;;9.70;99.90;;;;;;5014986;28;20045;-90
2021/09/21 07:30:09;;;;;;;7.97;5.32;;;9.60;99.90;;;;;;5013744;28;20030;-90
2021/09/21 07:32:35;;;;;;;8.45;4.50;;;9.70;99.90;;;;;;5013214;28;20025;-90
2021/09/21 07:35:02;;;;;;;8.95;5.22;;;9.70;99.90;;;;;;5010039;28;20022;-88
2021/09/21 07:37:27;;;;;;;7.63;5.18;;;9.70;99.90;;;;;;5012487;28;20388;-90
2021/09/21 07:39:53;;;;;;;10.27;5.45;;;9.70;99.90;;;;;;5016166;28;20021;-90
2021/09/21 07:42:19;;;;;;;8.70;4.70;;;9.70;99.90;;;;;;5011890;28;20518;-89
2021/09/21 07:44:45;;;;;;;7.18;4.82;;;9.80;99.90;;;;;;5009230;28;20030;-90
2021/09/21 07:47:12;;;;;;;5.78;4.53;;;9.90;99.90;;;;;;5013160;28;20038;-90
2021/09/21 07:49:38;;;;;;;8.43;4.50;;;9.90;99.90;;;;;;5016240;28;20460;-90
2021/09/21 07:52:04;;;;;;;5.82;3.90;;;9.90;99.90;;;;;;4998226;28;20072;-91
2021/09/21 07:54:30;;;;;;;4.90;3.75;;;9.90;99.90;;;;;;5008715;28;20046;-90
2021/09/21 07:56:55;;;;;;;5.50;3.63;;;9.90;99.90;;;;;;5012434;28;20028;-89
2021/09/21 07:59:21;;;;;;;5.75;4.07;;;9.90;99.90;;;;;;5013162;28;20533;-90
2021/09/21 08:01:47;;;;;;;5.25;3.70;;;10.00;99.90;;;;;;5001289;28;20029;-90
2021/09/21 08:04:12;;;;;;;11.00;3.92;;;10.00;99.90;;;;;;5009037;28;20026;-90
2021/09/21 08:06:38;;;;;;;6.03;3.67;;;10.00;99.90;;;;;;5010461;28;20038;-88
2021/09/21 08:09:04;;;;;;;4.97;3.65;;;10.00;99.90;;;;;;5012236;28;20375;-89
2021/09/21 08:11:30;;;;;;;6.10;4.07;;;10.10;99.90;;;;;;5010447;28;20439;-90
2021/09/21 08:13:55;;;;;;;4.80;3.47;;;10.10;99.90;;;;;;5012336;28;20021;-90
2021/09/21 08:16:22;;;;;;;4.50;3.25;;;10.20;99.90;;;;;;5010607;28;20066;-89
2021/09/21 08:18:47;;;;;;;5.57;3.35;;;10.20;99.90;;;;;;5013687;28;20406;-89
2021/09/21 08:21:13;;;;;;;5.45;3.45;;;10.30;99.90;;;;;;5011609;28;20026;-90
2021/09/21 08:23:39;;;;;;;7.00;4.20;;;10.40;99.90;;;;;;5007992;28;20491;-90
2021/09/21 08:26:04;;;;;;;4.90;3.30;;;10.40;99.90;;;;;;5010259;28;20037;-90
2021/09/21 08:28:30;;;;;;;7.72;3.53;;;10.50;99.90;;;;;;5011671;28;20061;-89
2021/09/21 08:30:56;;;;;;;5.82;3.08;;;10.50;99.90;;;;;;5015762;28;20512;-90
2021/09/21 08:33:22;;;;;;;8.13;3.28;;;10.50;99.90;;;;;;5008925;28;20026;-89
2021/09/21 08:35:48;;;;;;;5.72;3.55;;;10.60;99.90;;;;;;5008274;28;20097;-90
2021/09/21 08:38:13;;;;;;;5.72;3.30;;;10.70;99.90;;;;;;5003322;28;20117;-89
2021/09/21 08:40:39;;;;;;;4.78;2.85;;;10.80;99.90;;;;;;5008821;28;20110;-91
2021/09/21 08:43:05;;;;;;;5.32;2.92;;;10.80;99.90;;;;;;5008808;28;20030;-89
2021/09/21 08:45:31;;;;;;;4.40;3.08;;;10.70;99.90;;;;;;5009433;28;20136;-89
2021/09/21 08:47:56;;;;;;;3.80;2.88;;;10.60;99.90;;;;;;5005835;28;20029;-89
2021/09/21 08:50:24;;;;;;;3.45;2.55;;;10.60;99.90;;;;;;5010250;28;20499;-90
2021/09/21 08:52:50;;;;;;;5.13;2.90;;;10.70;99.90;;;;;;5009673;28;20014;-90
2021/09/21 08:55:16;;;;;;;3.33;2.70;;;10.80;99.90;;;;;;5009643;28;20125;-89
2021/09/21 08:57:43;;;;;;;3.88;2.35;;;11.00;99.90;;;;;;5012924;28;20041;-89
2021/09/21 09:00:21;;;;;;;3.80;2.40;;;11.10;99.90;;;;;;5006626;28;20472;-89
2021/09/21 09:02:48;;;;;;;4.97;2.35;;;11.20;99.90;;;;;;5006896;28;20148;-92
2021/09/21 09:05:13;;;;;;;5.43;2.40;;;11.30;99.90;;;;;;5009754;28;20034;-91
2021/09/21 09:07:51;;;;;;;4.18;2.40;;;11.40;99.90;;;;;;5012619;28;20029;-91
2021/09/21 09:10:18;;;;;;;3.08;2.58;;;11.40;99.90;;;;;;5010843;28;20536;-90
2021/09/21 09:12:45;;;;;;;3.60;2.42;;;11.50;99.90;;;;;;5010869;28;20029;-91
2021/09/21 09:15:14;;;;;;;4.88;1.90;;;11.50;99.90;;;;;;5007854;28;20006;-90
2021/09/21 09:17:55;;;;;;;3.15;2.10;;;11.60;99.90;;;;;;5014910;28;20079;-91
2021/09/21 09:20:44;;;;;;;4.25;1.95;;;11.70;99.90;;;;;;5013519;28;20010;-91
2021/09/21 09:23:10;;;;;;;5.45;2.60;;;11.80;99.90;;;;;;5023224;28;20031;-90
2021/09/21 09:25:49;;;;;;;4.93;2.90;;;11.90;99.90;;;;;;5010417;28;20034;-92
2021/09/21 09:28:20;;;;;;;6.15;3.00;;;12.00;99.90;;;;;;5010606;28;20057;-89
2021/09/21 09:30:47;;;;;;;5.20;2.85;;;12.00;99.90;;;;;;5011011;28;20464;-89
2021/09/21 09:33:13;;;;;;;4.00;2.72;;;12.10;99.90;;;;;;5009456;28;20022;-88
2021/09/21 09:35:43;;;;;;;5.72;2.90;;;12.20;99.90;;;;;;5009529;28;20082;-91
2021/09/21 09:38:15;;;;;;;3.93;2.77;;;12.20;99.90;;;;;;5007403;28;20026;-91
2021/09/21 09:40:46;;;;;;;4.75;2.35;;;12.30;99.90;;;;;;5010541;28;20277;-89
2021/09/21 09:43:13;;;;;;;6.18;2.63;;;12.20;99.90;;;;;;5009383;28;20017;-90
2021/09/21 09:45:41;;;;;;;8.85;3.05;;;12.40;99.90;;;;;;5012343;28;20101;-90
2021/09/21 09:48:08;;;;;;;3.78;2.53;;;12.50;99.90;;;;;;4998286;28;20024;-91
2021/09/21 09:50:35;;;;;;;3.35;2.70;;;12.50;99.90;;;;;;5002271;28;20499;-90
2021/09/21 09:53:05;;;;;;;3.92;2.95;;;12.40;99.90;;;;;;5003989;28;20546;-91
2021/09/21 09:55:33;;;;;;;4.00;2.40;;;12.30;99.90;;;;;;5007617;28;20138;-91
2021/09/21 09:58:00;;;;;;;5.60;3.53;;;12.20;99.90;;;;;;5010360;28;20036;-90
2021/09/21 10:00:27;;;;;;;3.53;2.65;;;12.30;99.90;;;;;;5007346;28;20495;-91
2021/09/21 10:02:54;;;;;;;2.72;2.15;;;12.40;99.90;;;;;;4998843;28;20065;-90
2021/09/21 10:05:20;;;;;;;5.13;2.53;;;12.60;99.90;;;;;;5006787;28;20030;-90
2021/09/21 10:07:47;;;;;;;4.05;2.90;;;12.70;99.90;;;;;;4999922;28;20088;-91
2021/09/21 10:10:14;;;;;;;5.32;2.22;;;12.70;99.90;;;;;;5009250;28;20030;-90
2021/09/21 10:12:40;;;;;;;4.88;2.45;;;12.80;99.90;;;;;;5010117;28;20014;-90
2021/09/21 10:15:08;;;;;;;4.20;2.50;;;12.80;99.90;;;;;;5009322;28;20034;-91
2021/09/21 10:17:35;;;;;;;6.38;2.90;;;12.90;99.90;;;;;;5010173;28;20054;-89
2021/09/21 10:20:03;;;;;;;3.65;1.83;;;13.00;99.90;;;;;;5008616;28;20026;-92
2021/09/21 10:22:35;;;;;;;9.38;3.85;;;13.00;99.90;;;;;;5007624;28;20026;-90
2021/09/21 10:25:06;;;;;;;5.45;3.03;;;13.10;99.90;;;;;;5011974;28;20051;-90
2021/09/21 10:27:38;;;;;;;5.55;3.40;;;13.10;99.90;;;;;;5013615;28;20037;-92
2021/09/21 10:30:09;;;;;;;5.65;3.30;;;13.10;99.90;;;;;;5013296;28;20101;-90
2021/09/21 10:32:46;;;;;;;5.97;2.90;;;13.10;99.90;;;;;;5014216;28;20032;-90
2021/09/21 10:35:15;;;;;;;4.88;2.70;;;13.20;99.90;;;;;;5010776;28;20065;-90
2021/09/21 10:37:41;;;;;;;7.00;3.45;;;13.10;99.90;;;;;;5012004;28;20088;-89
2021/09/21 10:40:08;;;;;;;6.13;3.20;;;13.10;99.90;;;;;;5008090;28;20033;-90
2021/09/21 10:42:34;;;;;;;7.60;2.58;;;13.10;99.90;;;;;;5008667;28;20030;-90
2021/09/21 10:45:04;;;;;;;5.38;2.75;;;13.20;99.90;;;;;;5011663;28;20109;-90
2021/09/21 10:47:40;;;;;;;3.58;2.58;;;13.10;99.90;;;;;;5011297;28;20112;-89
2021/09/21 10:50:15;;;;;;;3.95;2.60;;;13.00;99.90;;;;;;5010633;28;20101;-90
2021/09/21 10:52:41;;;;;;;5.22;3.03;;;13.20;99.90;;;;;;5011852;28;20027;-90
2021/09/21 10:55:12;;;;;;;2.92;2.55;;;13.40;99.90;;;;;;5014226;28;20064;-90
2021/09/21 10:57:42;;;;;;;6.85;2.47;;;13.60;99.90;;;;;;5013218;28;20026;-89
2021/09/21 11:00:23;;;;;;;3.92;2.60;;;13.80;99.90;;;;;;5012739;28;20029;-91
2021/09/21 11:02:52;;;;;;;5.30;2.50;;;13.80;99.90;;;;;;5010792;28;20104;-89
2021/09/21 11:05:19;;;;;;;7.05;2.30;;;13.90;99.90;;;;;;5010082;28;20042;-90
2021/09/21 11:07:50;;;;;;;5.78;2.72;;;14.00;99.90;;;;;;5008361;28;20023;-90
2021/09/21 11:10:17;;;;;;;3.33;2.30;;;14.10;99.90;;;;;;5010414;28;20041;-90
2021/09/21 11:12:48;;;;;;;3.97;2.55;;;14.20;99.90;;;;;;5003800;28;20465;-92
2021/09/21 11:15:15;;;;;;;3.28;2.45;;;14.20;99.90;;;;;;5011614;28;20030;-89
2021/09/21 11:17:40;;;;;;;3.97;2.45;;;14.10;99.90;;;;;;5013168;28;20411;-91
2021/09/21 11:20:07;;;;;;;6.65;2.75;;;14.10;99.90;;;;;;5012130;28;20083;-90
2021/09/21 11:22:33;;;;;;;7.53;2.42;;;14.10;99.90;;;;;;5011610;28;20018;-92
2021/09/21 11:25:06;;;;;;;3.55;2.30;;;14.20;99.90;;;;;;5013395;28;20095;-89
2021/09/21 11:27:41;;;;;;;5.45;2.75;;;14.20;99.90;;;;;;5011005;28;20030;-91
2021/09/21 11:30:07;;;;;;;4.00;2.30;;;14.30;99.90;;;;;;5011144;28;20029;-89
2021/09/21 11:32:34;;;;;;;2.92;2.47;;;14.20;99.90;;;;;;5010713;28;20141;-91
2021/09/21 11:35:12;;;;;;;5.72;2.88;;;14.10;99.90;;;;;;5005858;28;20079;-89
2021/09/21 11:37:41;;;;;;;5.75;2.00;;;14.00;99.90;;;;;;5006919;28;20026;-90
2021/09/21 11:40:08;;;;;;;4.80;3.33;;;13.90;99.90;;;;;;5010876;28;20022;-89
2021/09/21 11:42:36;;;;;;;6.60;2.20;;;13.90;99.90;;;;;;5010653;28;20047;-90
2021/09/21 11:45:08;;;;;;;4.07;2.35;;;13.90;99.90;;;;;;5009025;28;20061;-90
2021/09/21 11:47:40;;;;;;;3.58;2.10;;;14.00;99.90;;;;;;5007209;28;20479;-89
2021/09/21 11:50:12;;;;;;;7.65;2.20;;;14.00;99.90;;;;;;5007422;28;20022;-90
2021/09/21 11:52:39;;;;;;;3.63;1.70;;;14.20;99.90;;;;;;5009557;28;20026;-91
2021/09/21 11:55:11;;;;;;;5.28;2.30;;;14.10;99.90;;;;;;5013275;28;20050;-90
2021/09/21 11:57:37;;;;;;;6.82;2.60;;;14.20;99.90;;;;;;5011735;28;20030;-90
2021/09/21 12:00:04;;;;;;;5.97;3.05;;;14.40;99.90;;;;;;5007580;28;20072;-91
2021/09/21 12:02:34;;;;;;;7.63;2.83;;;14.40;99.90;;;;;;5013581;28;20053;-91
2021/09/21 12:05:00;;;;;;;6.03;2.90;;;14.30;99.90;;;;;;5010480;28;20054;-92
2021/09/21 12:07:26;;;;;;;4.15;2.70;;;14.20;99.90;;;;;;5013542;28;20464;-91
2021/09/21 12:09:53;;;;;;;4.47;2.75;;;14.10;99.90;;;;;;5012778;28;20010;-92
2021/09/21 12:12:22;;;;;;;4.22;2.40;;;14.00;99.90;;;;;;5014904;28;20036;-90
2021/09/21 12:14:58;;;;;;;4.32;2.10;;;13.90;99.90;;;;;;5012788;28;20034;-91
2021/09/21 12:17:25;;;;;;;3.17;2.35;;;13.70;99.90;;;;;;5015586;28;20022;-89
2021/09/21 12:19:59;;;;;;;4.10;2.58;;;13.70;99.90;;;;;;5026483;28;20383;-89
2021/09/21 12:22:25;;;;;;;4.32;2.25;;;13.70;99.90;;;;;;5017872;28;20024;-91
2021/09/21 12:24:52;;;;;;;10.27;3.08;;;13.70;99.90;;;;;;5013616;28;20057;-90
2021/09/21 12:27:23;;;;;;;5.60;3.15;;;13.80;99.90;;;;;;4997084;28;20031;-90
2021/09/21 12:29:49;;;;;;;3.20;2.58;;;13.80;99.90;;;;;;4988658;28;20038;-91
2021/09/21 12:32:15;;;;;;;3.95;2.63;;;13.80;99.90;;;;;;5008585;28;20072;-91
2021/09/21 12:34:43;;;;;;;6.63;2.72;;;13.90;99.90;;;;;;5006988;28;20038;-92
2021/09/21 12:37:08;;;;;;;4.63;2.58;;;14.00;99.90;;;;;;5009510;28;20550;-90
2021/09/21 12:39:35;;;;;;;5.65;3.10;;;14.10;99.90;;;;;;5009879;28;20026;-89
2021/09/21 12:42:03;;;;;;;5.05;2.70;;;14.10;99.90;;;;;;5011341;28;20105;-90
2021/09/21 12:44:29;;;;;;;4.53;2.60;;;14.10;99.90;;;;;;5016006;28;20025;-89
2021/09/21 12:46:58;;;;;;;5.57;2.75;;;14.00;99.90;;;;;;5013798;28;20025;-91
2021/09/21 12:49:29;;;;;;;7.85;3.38;;;14.10;99.90;;;;;;5007528;28;20149;-92
2021/09/21 12:51:58;;;;;;;5.55;2.80;;;14.20;99.90;;;;;;5011408;28;20038;-92